URMM

Mineralnyye Vody Airport

Mineralnyye Vody, Russian Federation
TAF URMM 191958Z 1921/2021 28003G08MPS 9999 NSC TX26/2012Z TN06/2002Z TEMPO 2000/2006 VRB01MPS 3100 BR BKN011 BECMG 2006/2008 09003G08MPS
Issued Valid From Valid To
Sep-19 @ 19:58 UTC
(3 hours ago)
Sep-19 @ 21:00 UTC
(2 hours ago)
Sep-20 @ 21:00 UTC
(in 22 hours)
Sep-19 @ 21:00 to Sep-20 @ 06:00
TAF URMM 191958Z 1921/2021 28003G08MPS 9999 NSC TX26/2012Z TN06/2002Z
Wind Visibility Clouds
280° at 6 knots
 Gusting to 16 knots
10,000+ meters
  • No significant clouds
Temporary Sep-20 @ 00:00 to Sep-20 @ 06:00
TEMPO 2000/2006 VRB01MPS 3100 BR BKN011
Wind Visibility Clouds Conditions
Variable at 2 knots 3,106 meters
  • Broken at 1,100' AGL
  • Mist
Becoming Sep-20 @ 06:00 to Sep-20 @ 21:00
BECMG 2006/2008 09003G08MPS
Wind Visibility Clouds
90° at 6 knots
 Gusting to 16 knots
10,000+ meters
  • No significant clouds
TAF URMM 191958Z 1921/2021 28003G08MPS 9999 NSC TX26/2012Z TN06/2002Z TEMPO 2000/2006 VRB01MPS 3100 BR BKN011 BECMG 2006/2008 09003G08MPS
Issued Sep-19 @ 19:58 UTC
(3 hours ago)
Valid From Sep-19 @ 21:00 UTC
(2 hours ago)
Valid To Sep-20 @ 21:00 UTC
(in 22 hours)
Sep-19 @ 21:00 - Sep-20 @ 06:00
Wind Visibility
280° at 6 knots
 Gusting to 16 knots
10,000+ meters
Clouds
  • No significant clouds
Temporary Sep-20 @ 00:00 - Sep-20 @ 06:00
Wind Visibility
Variable at 2 knots 3,106 meters
Clouds
  • Broken at 1,100' AGL
Conditions
  • Mist
Becoming Sep-20 @ 06:00 - Sep-20 @ 21:00
Wind Visibility
90° at 6 knots
 Gusting to 16 knots
10,000+ meters
Clouds
  • No significant clouds